Time;durP1;ratioP1;P1;durP2;ratioP2;P2;SDS_P1;SDS_P2;PMS_P1;PMS_P2;Temp;Humidity;BMP_temperature;BMP_pressure;BME280_temperature;BME280_humidity;BME280_pressure;Samples;Min_cycle;Max_cycle;Signal;HPM_P1;HPM_P2
2022/10/14 00:02:24;;;;;;;;;29.50;26.75;;;;;27.63;100.00;101397.72;6189305;23;51471;-52
2022/10/14 00:05:09;;;;;;;;;17.00;15.25;;;;;27.56;100.00;101393.63;6189744;23;51366;-52
2022/10/14 00:07:55;;;;;;;;;21.25;19.50;;;;;27.53;100.00;101398.31;6188936;23;51131;-48
2022/10/14 00:10:39;;;;;;;;;10.50;10.50;;;;;27.53;100.00;101401.03;6189847;23;51091;-49
2022/10/14 00:13:24;;;;;;;;;10.25;9.25;;;;;27.45;100.00;101392.47;6189497;23;51059;-52
2022/10/14 00:16:20;;;;;;;;;16.25;11.75;;;;;27.45;100.00;101391.56;6189891;23;51001;-50
2022/10/14 00:19:05;;;;;;;;;12.75;8.75;;;;;27.43;100.00;101396.22;6188984;23;51057;-46
2022/10/14 00:21:50;;;;;;;;;11.75;8.25;;;;;27.36;100.00;101393.00;6190054;23;51517;-49
2022/10/14 00:24:35;;;;;;;;;8.75;8.75;;;;;27.34;100.00;101394.97;6181735;23;51435;-53
2022/10/14 00:27:19;;;;;;;;;3.00;2.00;;;;;27.29;100.00;101398.00;6188716;23;51160;-49
2022/10/14 00:30:04;;;;;;;;;8.00;6.00;;;;;27.23;100.00;101392.94;6189855;23;51634;-51
2022/10/14 00:32:48;;;;;;;;;12.00;8.75;;;;;27.20;100.00;101387.66;6189168;23;51077;-52
2022/10/14 00:35:33;;;;;;;;;9.50;6.50;;;;;27.17;100.00;101385.13;6190017;23;51142;-49
2022/10/14 00:38:18;;;;;;;;;8.50;6.25;;;;;27.15;100.00;101373.41;6183815;23;51502;-49
2022/10/14 00:41:03;;;;;;;;;6.25;6.25;;;;;27.19;100.00;101373.13;6189717;23;51059;-45
2022/10/14 00:43:52;;;;;;;;;8.50;6.25;;;;;27.24;100.00;101366.50;6189162;23;51311;-51
2022/10/14 00:46:42;;;;;;;;;6.00;5.25;;;;;27.27;100.00;101361.72;6188285;23;51234;-49
2022/10/14 00:49:35;;;;;;;;;8.00;6.00;;;;;27.25;100.00;101352.72;6188945;23;51155;-51
2022/10/14 00:52:21;;;;;;;;;8.00;7.00;;;;;27.21;100.00;101341.13;6188767;23;51138;-51
2022/10/14 00:55:12;;;;;;;;;9.75;7.00;;;;;27.22;100.00;101347.44;6166419;23;51082;-49
2022/10/14 00:57:57;;;;;;;;;8.25;6.25;;;;;27.22;100.00;101342.00;6166584;23;51423;-49
2022/10/14 01:00:42;;;;;;;;;7.25;6.25;;;;;27.18;100.00;101338.59;6166116;23;51141;-50
2022/10/14 01:03:26;;;;;;;;;7.25;5.75;;;;;27.21;100.00;101329.31;6188993;23;51078;-51
2022/10/14 01:06:42;;;;;;;;;12.25;6.75;;;;;27.17;100.00;101314.97;6188144;23;51099;-49
2022/10/14 01:09:27;;;;;;;;;7.25;7.25;;;;;27.24;100.00;101314.59;6188592;23;50953;-52
2022/10/14 01:12:33;;;;;;;;;6.50;6.50;;;;;27.29;100.00;101316.03;6188274;23;51138;-50
2022/10/14 01:15:33;;;;;;;;;10.25;9.00;;;;;27.31;100.00;101311.34;6188782;23;50976;-49
2022/10/14 01:18:40;;;;;;;;;9.50;8.75;;;;;27.34;100.00;101316.59;6188420;23;51472;-51
2022/10/14 01:21:46;;;;;;;;;13.75;10.25;;;;;27.40;100.00;101318.06;6189126;23;51113;-50
2022/10/14 01:24:41;;;;;;;;;7.00;7.00;;;;;27.46;100.00;101316.81;6188511;23;51349;-49
2022/10/14 01:27:57;;;;;;;;;6.75;5.50;;;;;27.48;100.00;101309.41;6188033;23;51109;-49
2022/10/14 01:30:49;;;;;;;;;6.50;6.50;;;;;27.47;100.00;101308.50;6165618;23;51122;-53
2022/10/14 01:33:41;;;;;;;;;9.25;5.50;;;;;27.45;100.00;101310.47;6166380;23;51075;-50
2022/10/14 01:36:29;;;;;;;;;4.25;4.00;;;;;27.48;100.00;101314.88;6187860;23;51050;-51
2022/10/14 01:39:47;;;;;;;;;7.25;7.25;;;;;27.51;100.00;101311.94;6166099;23;51102;-53
2022/10/14 01:42:34;;;;;;;;;8.00;6.75;;;;;27.52;100.00;101305.47;6117206;23;51346;-53
2022/10/14 01:45:21;;;;;;;;;8.50;7.50;;;;;27.52;100.00;101305.47;6165492;23;51005;-52
2022/10/14 01:48:06;;;;;;;;;7.25;7.25;;;;;27.51;100.00;101306.47;6189127;23;51063;-51
2022/10/14 01:50:52;;;;;;;;;10.25;8.00;;;;;27.50;100.00;101307.44;6165733;23;51521;-53
2022/10/14 01:53:42;;;;;;;;;7.25;7.25;;;;;27.50;100.00;101304.72;6165776;23;51015;-53
2022/10/14 01:56:29;;;;;;;;;8.75;8.25;;;;;27.47;100.00;101299.44;6165121;23;51102;-50
2022/10/14 01:59:16;;;;;;;;;8.00;6.75;;;;;27.39;100.00;101302.63;6189376;23;51024;-53
2022/10/14 02:02:01;;;;;;;;;11.75;8.25;;;;;27.38;100.00;101304.50;6165724;23;51628;-52
2022/10/14 02:04:46;;;;;;;;;9.00;9.00;;;;;27.37;100.00;101302.75;6188419;23;51134;-52
2022/10/14 02:07:40;;;;;;;;;13.00;12.50;;;;;27.38;100.00;101299.03;6188110;23;51048;-50
2022/10/14 02:10:52;;;;;;;;;13.25;7.75;;;;;27.41;100.00;101297.09;6165326;23;51025;-51
2022/10/14 02:13:43;;;;;;;;;12.25;10.50;;;;;27.41;100.00;101292.50;6188674;23;50965;-52
2022/10/14 02:16:37;;;;;;;;;12.75;11.25;;;;;27.38;100.00;101288.13;6187518;23;51443;-53
2022/10/14 02:19:41;;;;;;;;;10.25;10.25;;;;;27.36;100.00;101289.16;6165987;23;51115;-50
2022/10/14 02:22:59;;;;;;;;;9.75;9.75;;;;;27.28;100.00;101284.22;6165328;23;51392;-49
2022/10/14 02:25:46;;;;;;;;;12.50;9.75;;;;;27.19;100.00;101277.50;6158047;23;51101;-50
2022/10/14 02:28:31;;;;;;;;;8.50;8.00;;;;;27.12;100.00;101283.47;6165098;23;51476;-53
2022/10/14 02:31:17;;;;;;;;;15.50;11.25;;;;;27.08;100.00;101282.78;6165943;23;51080;-51
2022/10/14 02:34:04;;;;;;;;;10.75;10.75;;;;;27.01;100.00;101274.13;6165603;23;51120;-51
2022/10/14 02:36:50;;;;;;;;;11.50;9.00;;;;;26.98;100.00;101285.25;6186741;23;51151;-49
2022/10/14 02:39:37;;;;;;;;;11.25;11.00;;;;;26.97;100.00;101288.06;6166221;23;51082;-50
2022/10/14 02:42:22;;;;;;;;;14.25;10.50;;;;;26.96;100.00;101289.94;6187638;23;51397;-50
2022/10/14 02:45:07;;;;;;;;;10.00;10.00;;;;;26.95;100.00;101282.72;6188240;23;51050;-52
2022/10/14 02:47:52;;;;;;;;;7.50;7.50;;;;;26.97;100.00;101277.16;6189077;23;51178;-49
2022/10/14 02:50:37;;;;;;;;;10.00;9.50;;;;;26.93;100.00;101273.75;6189226;23;51001;-50
2022/10/14 02:53:21;;;;;;;;;16.00;10.00;;;;;26.95;100.00;101271.81;6188028;23;51098;-47
2022/10/14 02:56:06;;;;;;;;;10.25;9.50;;;;;26.97;100.00;101258.03;6187815;23;51467;-48
2022/10/14 02:58:51;;;;;;;;;16.00;11.50;;;;;26.96;100.00;101242.63;6188274;23;50970;-50
2022/10/14 03:01:35;;;;;;;;;13.25;13.25;;;;;27.12;100.00;101253.41;6188638;23;51066;-50
2022/10/14 03:04:20;;;;;;;;;12.00;11.25;;;;;27.17;100.00;101246.69;6188978;23;51016;-52
2022/10/14 03:07:05;;;;;;;;;11.75;10.25;;;;;27.17;100.00;101251.28;6187806;23;51044;-52
2022/10/14 03:09:50;;;;;;;;;9.50;8.50;;;;;27.12;100.00;101251.59;6188256;23;51429;-52
2022/10/14 03:12:35;;;;;;;;;13.00;9.25;;;;;27.10;100.00;101247.19;6188725;23;50953;-51
2022/10/14 03:15:19;;;;;;;;;9.25;9.00;;;;;27.11;100.00;101254.41;6187921;23;51124;-49
2022/10/14 03:18:04;;;;;;;;;14.25;9.00;;;;;27.15;100.00;101250.50;6188714;23;51002;-50
2022/10/14 03:20:48;;;;;;;;;9.50;9.50;;;;;27.21;100.00;101256.44;6187596;23;51093;-51
2022/10/14 03:23:33;;;;;;;;;10.75;10.75;;;;;27.32;100.00;101263.06;6188028;23;51163;-51
2022/10/14 03:26:18;;;;;;;;;12.75;12.75;;;;;27.41;100.00;101256.09;6188248;23;51069;-51
2022/10/14 03:29:02;;;;;;;;;13.00;10.75;;;;;27.46;100.00;101257.56;6188312;23;51008;-51
2022/10/14 03:31:47;;;;;;;;;14.00;12.75;;;;;27.51;100.00;101255.41;6188468;23;51345;-49
2022/10/14 03:34:31;;;;;;;;;11.75;10.50;;;;;27.53;100.00;101266.22;6187773;23;51139;-47
2022/10/14 03:37:16;;;;;;;;;12.75;10.00;;;;;27.50;100.00;101267.31;6184795;23;51135;-49
2022/10/14 03:40:01;;;;;;;;;11.00;9.00;;;;;27.46;100.00;101256.69;6187346;23;51493;-50
2022/10/14 03:42:45;;;;;;;;;15.00;10.00;;;;;27.45;100.00;101260.41;6187862;23;51375;-50
2022/10/14 03:45:30;;;;;;;;;12.50;10.25;;;;;27.40;100.00;101260.69;6187964;23;51117;-50
2022/10/14 03:48:15;;;;;;;;;10.25;8.75;;;;;27.38;100.00;101260.78;6188599;23;51044;-46
2022/10/14 03:50:59;;;;;;;;;15.00;10.50;;;;;27.36;100.00;101254.53;6187680;23;51120;-50
2022/10/14 03:53:43;;;;;;;;;20.25;18.00;;;;;27.32;100.00;101249.38;6190054;23;51025;-47
2022/10/14 03:56:28;;;;;;;;;24.75;21.75;;;;;27.26;100.00;101249.78;6189146;22;51095;-52
2022/10/14 03:59:13;;;;;;;;;20.25;19.00;;;;;27.19;100.00;101236.53;6190658;23;51615;-50
2022/10/14 04:01:57;;;;;;;;;18.50;18.25;;;;;27.20;100.00;101251.06;6188846;23;51044;-49
2022/10/14 04:04:41;;;;;;;;;27.50;24.00;;;;;27.14;100.00;101235.09;6189990;23;51109;-48
2022/10/14 04:07:26;;;;;;;;;23.25;22.25;;;;;27.11;100.00;101247.09;6189016;23;51104;-50
2022/10/14 04:10:10;;;;;;;;;32.25;26.00;;;;;27.09;100.00;101243.59;6189985;23;51064;-52
2022/10/14 04:12:55;;;;;;;;;34.25;29.25;;;;;27.06;100.00;101243.78;6189725;23;51627;-51
2022/10/14 04:15:39;;;;;;;;;15.00;14.00;;;;;27.03;100.00;101247.59;6189307;23;51104;-49
2022/10/14 04:18:23;;;;;;;;;15.50;13.00;;;;;26.99;100.00;101237.84;6189633;23;51044;-51
2022/10/14 04:21:11;;;;;;;;;13.00;10.25;;;;;26.99;100.00;101251.50;6189405;23;50974;-49
2022/10/14 04:23:55;;;;;;;;;31.00;26.75;;;;;26.98;100.00;101247.03;6166715;23;51548;-50
2022/10/14 04:26:40;;;;;;;;;17.75;14.75;;;;;26.98;100.00;101247.03;6189605;23;51029;-50
2022/10/14 04:29:25;;;;;;;;;23.50;20.50;;;;;26.99;100.00;101248.75;6190367;23;51131;-51
2022/10/14 04:32:09;;;;;;;;;34.75;31.25;;;;;26.99;100.00;101243.28;6188787;23;51133;-51
2022/10/14 04:34:53;;;;;;;;;33.75;31.00;;;;;27.02;100.00;101244.97;6189614;23;51203;-50
2022/10/14 04:37:38;;;;;;;;;24.50;24.00;;;;;27.01;100.00;101249.53;6184420;23;51037;-52
2022/10/14 04:40:24;;;;;;;;;34.00;31.00;;;;;26.99;100.00;101259.69;6188763;23;51046;-51
2022/10/14 04:43:09;;;;;;;;;28.75;27.25;;;;;26.96;100.00;101254.44;6188821;23;51046;-48
2022/10/14 04:45:54;;;;;;;;;12.25;12.25;;;;;26.97;100.00;101261.66;6189055;23;51396;-51
2022/10/14 04:48:38;;;;;;;;;31.75;29.25;;;;;26.97;100.00;101258.94;6188946;23;51710;-50
2022/10/14 04:51:23;;;;;;;;;24.25;19.00;;;;;26.94;100.00;101264.59;6188508;23;51143;-48
2022/10/14 04:54:07;;;;;;;;;23.75;23.50;;;;;26.89;100.00;101261.25;6189398;23;51053;-47
2022/10/14 04:56:51;;;;;;;;;28.25;22.25;;;;;26.85;100.00;101251.53;6188459;23;51442;-50
2022/10/14 04:59:36;;;;;;;;;22.25;20.50;;;;;26.83;100.00;101251.59;6188789;23;51485;-52
2022/10/14 05:02:21;;;;;;;;;25.50;23.50;;;;;26.84;100.00;101244.31;6164389;23;51444;-52
2022/10/14 05:05:06;;;;;;;;;32.50;25.50;;;;;26.87;100.00;101247.72;6187294;23;50956;-51
2022/10/14 05:07:50;;;;;;;;;27.25;23.75;;;;;26.92;100.00;101255.59;6189309;23;51163;-50
2022/10/14 05:10:35;;;;;;;;;26.50;21.75;;;;;26.96;100.00;101256.28;6188401;23;51280;-51
2022/10/14 05:13:20;;;;;;;;;27.00;23.75;;;;;26.98;100.00;101257.06;6188473;23;51025;-50
2022/10/14 05:16:06;;;;;;;;;17.75;17.75;;;;;27.01;100.00;101265.94;6188804;23;51129;-53
2022/10/14 05:18:50;;;;;;;;;42.25;36.75;;;;;27.02;100.00;101266.81;6188984;23;51093;-53
2022/10/14 05:21:34;;;;;;;;;36.50;29.50;;;;;27.02;100.00;101264.94;6188506;23;51066;-49
2022/10/14 05:24:19;;;;;;;;;35.75;31.00;;;;;27.03;100.00;101277.63;6187507;23;51139;-48
2022/10/14 05:27:03;;;;;;;;;39.25;32.75;;;;;27.03;100.00;101272.16;6187486;23;51554;-48
2022/10/14 05:29:48;;;;;;;;;42.50;35.75;;;;;27.04;100.00;101278.50;6186810;23;51136;-52
2022/10/14 05:32:32;;;;;;;;;30.50;25.75;;;;;27.03;100.00;101279.50;6189820;23;51325;-52
2022/10/14 05:35:17;;;;;;;;;37.25;31.25;;;;;27.04;100.00;101290.31;6187943;23;51388;-50
2022/10/14 05:38:02;;;;;;;;;21.75;19.00;;;;;27.08;100.00;101301.06;6187031;23;51471;-50
2022/10/14 05:40:54;;;;;;;;;34.00;27.75;;;;;27.15;100.00;101307.88;6188452;23;51112;-48
2022/10/14 05:43:39;;;;;;;;;37.25;29.00;;;;;27.20;100.00;101317.50;6188554;23;51144;-48
2022/10/14 05:46:24;;;;;;;;;30.75;28.00;;;;;27.31;100.00;101316.78;6187772;23;51519;-49
2022/10/14 05:49:10;;;;;;;;;51.50;41.75;;;;;27.42;100.00;101310.66;6188191;23;51120;-50
2022/10/14 05:51:55;;;;;;;;;49.25;37.00;;;;;27.50;100.00;101318.38;6186497;23;51579;-46
2022/10/14 05:54:39;;;;;;;;;35.75;30.00;;;;;27.55;100.00;101318.94;6187168;23;51063;-46
2022/10/14 05:57:24;;;;;;;;;45.00;33.25;;;;;27.62;100.00;101324.88;6188607;23;51471;-42
2022/10/14 06:00:09;;;;;;;;;37.00;31.00;;;;;27.79;100.00;101326.47;6165560;23;51108;-47
2022/10/14 06:02:53;;;;;;;;;45.00;37.75;;;;;28.08;100.00;101324.53;6187968;23;51085;-47
2022/10/14 06:05:38;;;;;;;;;26.25;22.25;;;;;28.51;100.00;101328.00;6164747;23;51109;-45
2022/10/14 06:08:23;;;;;;;;;38.50;32.75;;;;;28.95;100.00;101326.69;6188159;23;51089;-45
2022/10/14 06:11:08;;;;;;;;;41.00;35.50;;;;;29.51;100.00;101322.66;6186895;23;51560;-49
2022/10/14 06:13:53;;;;;;;;;34.00;31.00;;;;;30.13;100.00;101321.66;6187258;23;51095;-45
2022/10/14 06:16:37;;;;;;;;;29.50;27.00;;;;;30.43;100.00;101322.97;6187852;23;50989;-45
2022/10/14 06:19:22;;;;;;;;;29.00;26.75;;;;;30.37;100.00;101320.69;6188102;23;51415;-45
2022/10/14 06:22:07;;;;;;;;;35.50;30.00;;;;;30.32;100.00;101322.94;6165045;23;51001;-46
2022/10/14 06:24:52;;;;;;;;;36.50;31.75;;;;;30.29;100.00;101324.06;6187071;23;51052;-43
2022/10/14 06:27:37;;;;;;;;;30.25;26.00;;;;;30.27;100.00;101327.91;6188631;23;51544;-43
2022/10/14 06:30:21;;;;;;;;;41.00;32.75;;;;;30.25;100.00;101338.16;6186106;23;51289;-45
2022/10/14 06:33:06;;;;;;;;;29.75;27.25;;;;;30.21;100.00;101347.63;6188277;23;51378;-42
2022/10/14 06:35:50;;;;;;;;;38.00;33.00;;;;;30.24;100.00;101353.72;6187291;23;51100;-46
2022/10/14 06:38:35;;;;;;;;;26.75;24.50;;;;;30.36;100.00;101351.03;6187738;23;51086;-44
2022/10/14 06:41:20;;;;;;;;;23.50;19.75;;;;;30.52;100.00;101347.94;6188364;23;51357;-44
2022/10/14 06:44:04;;;;;;;;;28.50;25.75;;;;;30.63;100.00;101342.53;6187660;23;51089;-45
2022/10/14 06:46:49;;;;;;;;;26.25;24.25;;;;;30.66;100.00;101353.28;6188440;23;51052;-45
2022/10/14 06:49:33;;;;;;;;;27.00;23.75;;;;;30.85;100.00;101352.66;6188166;23;51128;-42
2022/10/14 06:52:18;;;;;;;;;22.50;22.25;;;;;31.45;100.00;101354.31;6188887;23;51062;-47
2022/10/14 06:55:03;;;;;;;;;25.75;20.75;;;;;31.68;100.00;101369.78;6187468;23;51213;-47
2022/10/14 06:57:47;;;;;;;;;24.50;20.75;;;;;31.96;100.00;101383.09;6188164;23;51065;-48
2022/10/14 07:00:31;;;;;;;;;26.25;24.25;;;;;32.79;100.00;101388.91;6187699;23;51430;-45
2022/10/14 07:03:16;;;;;;;;;27.00;23.50;;;;;33.89;100.00;101386.47;6188833;23;51365;-47
2022/10/14 07:06:03;;;;;;;;;20.50;17.00;;;;;35.46;100.00;101384.38;6187452;23;51392;-47
2022/10/14 07:08:47;;;;;;;;;20.75;19.25;;;;;36.99;100.00;101389.13;6187819;23;51009;-47
2022/10/14 07:11:32;;;;;;;;;19.50;17.00;;;;;38.27;100.00;101388.22;6182936;23;51178;-47
2022/10/14 07:14:16;;;;;;;;;24.50;18.75;;;;;39.40;100.00;101371.72;6186528;23;51108;-45
2022/10/14 07:17:01;;;;;;;;;23.75;22.50;;;;;40.26;100.00;101361.44;6187401;23;51388;-47
2022/10/14 07:19:45;;;;;;;;;23.50;15.25;;;;;41.25;100.00;101367.09;6184262;23;51161;-47
2022/10/14 07:22:29;;;;;;;;;18.50;17.25;;;;;42.51;100.00;101368.72;6187215;23;51013;-47
2022/10/14 07:25:14;;;;;;;;;15.50;13.25;;;;;43.46;100.00;101374.72;6164410;23;51086;-47
2022/10/14 07:27:59;;;;;;;;;15.25;13.75;;;;;43.64;100.00;101376.13;6188071;23;51301;-45
2022/10/14 07:30:44;;;;;;;;;14.75;11.25;;;;;43.97;100.00;101373.38;6189612;23;51379;-47
2022/10/14 07:33:29;;;;;;;;;13.50;11.25;;;;;43.85;100.00;101385.44;6189194;23;51135;-50
2022/10/14 07:36:15;;;;;;;;;18.00;16.25;;;;;43.84;100.00;101384.56;6189907;23;51199;-46
2022/10/14 07:39:00;;;;;;;;;43.00;33.50;;;;;44.53;100.00;101388.16;6189506;23;51071;-44
2022/10/14 07:41:45;;;;;;;;;23.50;20.00;;;;;45.06;100.00;101391.09;6189299;23;51057;-45
2022/10/14 07:44:30;;;;;;;;;14.00;9.00;;;;;45.18;100.00;101392.16;6188704;23;51323;-46
2022/10/14 07:47:15;;;;;;;;;11.75;10.50;;;;;44.78;100.00;101384.66;6190001;23;51066;-48
2022/10/14 07:50:01;;;;;;;;;18.00;15.75;;;;;43.73;100.00;101385.19;6188624;23;51367;-48
2022/10/14 07:52:45;;;;;;;;;14.50;14.50;;;;;41.56;100.00;101382.78;6189975;23;51117;-44
2022/10/14 07:55:29;;;;;;;;;4.50;2.00;;;;;39.88;100.00;101393.94;6189007;23;51162;-47
2022/10/14 07:58:14;;;;;;;;;16.75;12.25;;;;;38.49;100.00;101392.22;6188817;23;51104;-44
2022/10/14 08:00:59;;;;;;;;;16.75;14.00;;;;;37.49;100.00;101405.00;6189376;23;51075;-45
2022/10/14 08:03:45;;;;;;;;;15.50;14.25;;;;;37.10;100.00;101402.72;6188732;23;51116;-45
2022/10/14 08:06:29;;;;;;;;;12.25;11.00;;;;;37.62;100.00;101412.88;6188431;23;51378;-46
2022/10/14 08:09:14;;;;;;;;;13.25;10.25;;;;;37.19;100.00;101412.81;6186946;23;51113;-46
2022/10/14 08:11:59;;;;;;;;;9.25;7.75;;;;;38.13;100.00;101421.19;6188504;23;51583;-44
2022/10/14 08:14:43;;;;;;;;;10.25;9.25;;;;;39.83;100.00;101405.63;6188218;23;51821;-46
2022/10/14 08:17:27;;;;;;;;;12.25;8.50;;;;;41.43;100.00;101417.81;6188687;23;51168;-47
2022/10/14 08:20:12;;;;;;;;;8.75;8.75;;;;;42.71;100.00;101414.50;6188677;23;51021;-45
2022/10/14 08:22:56;;;;;;;;;8.50;7.25;;;;;43.18;100.00;101419.59;6188900;23;51021;-44
2022/10/14 08:25:42;;;;;;;;;9.50;8.50;;;;;42.12;100.00;101413.72;6189397;23;51126;-47
2022/10/14 08:28:27;;;;;;;;;9.00;8.25;;;;;40.60;100.00;101412.19;6188573;23;51056;-49
2022/10/14 08:31:11;;;;;;;;;8.25;7.00;;;;;39.24;100.00;101411.59;6188320;23;51322;-46
2022/10/14 08:33:56;;;;;;;;;8.75;7.75;;;;;38.29;100.00;101419.47;6188559;23;51105;-50
2022/10/14 08:36:41;;;;;;;;;7.25;7.25;;;;;37.43;100.00;101421.47;6189872;23;51074;-45
2022/10/14 08:39:26;;;;;;;;;8.00;6.25;;;;;36.65;100.00;101420.41;6188002;23;51088;-44
2022/10/14 08:42:32;;;;;;;;;10.75;8.75;;;;;36.13;100.00;101427.53;6188718;23;51037;-50
2022/10/14 08:45:19;;;;;;;;;8.75;8.25;;;;;35.72;100.00;101421.50;6188456;23;51121;-49
2022/10/14 08:48:12;;;;;;;;;8.00;7.25;;;;;35.55;100.00;101428.75;6188421;23;51132;-46
2022/10/14 08:51:10;;;;;;;;;13.50;12.00;;;;;35.29;100.00;101430.28;6165774;23;51063;-49
2022/10/14 08:54:02;;;;;;;;;12.50;8.00;;;;;35.11;100.00;101435.72;6188454;23;51220;-45
2022/10/14 08:56:47;;;;;;;;;8.75;6.50;;;;;34.80;100.00;101424.00;6166694;23;51255;-47
2022/10/14 08:59:36;;;;;;;;;10.50;6.75;;;;;34.58;100.00;101437.13;6187869;23;51293;-43
2022/10/14 09:02:27;;;;;;;;;9.25;7.00;;;;;34.52;100.00;101432.16;6166368;23;51139;-46
2022/10/14 09:05:24;;;;;;;;;10.00;7.25;;;;;34.45;100.00;101434.63;6164786;23;51136;-47
2022/10/14 09:08:14;;;;;;;;;8.50;7.25;;;;;34.35;100.00;101437.38;6165773;23;51124;-47
2022/10/14 09:10:59;;;;;;;;;10.75;7.75;;;;;34.26;100.00;101433.59;6166447;23;51158;-45
2022/10/14 09:13:56;;;;;;;;;9.00;8.00;;;;;34.34;100.00;101430.09;6165776;23;51101;-47
2022/10/14 09:16:44;;;;;;;;;7.50;6.50;;;;;34.34;100.00;101421.81;6187897;23;51101;-45
2022/10/14 09:19:32;;;;;;;;;7.75;6.50;;;;;34.25;100.00;101428.22;6187823;23;51111;-44
2022/10/14 09:22:17;;;;;;;;;7.75;6.50;;;;;34.29;100.00;101429.66;6188020;23;51363;-48
2022/10/14 09:25:01;;;;;;;;;6.50;6.50;;;;;34.22;100.00;101432.16;6188523;23;51489;-43
2022/10/14 09:27:46;;;;;;;;;7.25;7.25;;;;;34.26;100.00;101438.25;6186410;23;51159;-46
2022/10/14 09:30:36;;;;;;;;;6.00;6.00;;;;;34.23;100.00;101438.53;6187919;23;51345;-49
2022/10/14 09:33:26;;;;;;;;;9.75;6.50;;;;;34.19;100.00;101435.19;6166326;23;51175;-46
2022/10/14 09:36:15;;;;;;;;;9.25;7.25;;;;;34.07;100.00;101439.97;6166422;23;51339;-43
2022/10/14 09:38:59;;;;;;;;;9.50;6.75;;;;;33.88;100.00;101443.56;6187991;23;51050;-45
2022/10/14 09:41:45;;;;;;;;;9.00;5.25;;;;;33.78;100.00;101443.50;6187774;23;51151;-50
2022/10/14 09:44:30;;;;;;;;;7.75;7.00;;;;;33.71;100.00;101444.19;6165224;23;51100;-49
2022/10/14 09:47:17;;;;;;;;;6.75;6.75;;;;;33.70;100.00;101442.47;6188187;23;51052;-46
2022/10/14 09:50:07;;;;;;;;;9.75;8.75;;;;;33.67;100.00;101436.22;6164937;23;51515;-46
2022/10/14 09:53:00;;;;;;;;;6.50;6.50;;;;;33.64;100.00;101439.25;6164048;23;51391;-44
2022/10/14 09:55:47;;;;;;;;;9.00;7.25;;;;;33.59;100.00;101436.06;6185592;23;51061;-46
2022/10/14 09:58:42;;;;;;;;;6.50;5.25;;;;;33.49;100.00;101436.00;6163095;23;51126;-43
2022/10/14 10:01:29;;;;;;;;;6.25;6.25;;;;;33.35;100.00;101440.03;6185722;23;51460;-43
2022/10/14 10:04:46;;;;;;;;;8.25;6.50;;;;;33.23;100.00;101447.47;6163485;23;51128;-51
2022/10/14 10:07:32;;;;;;;;;6.25;6.00;;;;;33.13;100.00;101448.44;6177210;23;51686;-48
2022/10/14 10:10:20;;;;;;;;;8.00;6.75;;;;;33.00;100.00;101449.50;6187479;23;51043;-46
2022/10/14 10:13:21;;;;;;;;;8.00;6.75;;;;;32.96;100.00;101458.19;6187167;23;51453;-47
2022/10/14 10:16:09;;;;;;;;;6.75;6.75;;;;;32.84;100.00;101454.63;6188059;23;51052;-46
2022/10/14 10:18:55;;;;;;;;;6.25;5.00;;;;;32.85;100.00;101450.88;6165793;23;51152;-49
2022/10/14 10:21:39;;;;;;;;;6.50;4.50;;;;;32.71;100.00;101444.66;6163820;23;51495;-47
2022/10/14 10:24:23;;;;;;;;;6.25;6.00;;;;;32.80;100.00;101445.78;6188139;23;51181;-45
2022/10/14 10:27:34;;;;;;;;;4.50;4.25;;;;;32.83;100.00;101444.63;6187792;23;51415;-50
2022/10/14 10:30:26;;;;;;;;;5.00;5.00;;;;;32.90;100.00;101441.19;6185236;23;51068;-48
2022/10/14 10:33:32;;;;;;;;;7.00;6.00;;;;;32.97;100.00;101440.66;6186764;23;51446;-44
2022/10/14 10:36:39;;;;;;;;;4.50;4.50;;;;;33.04;100.00;101425.28;6187225;23;51120;-47
2022/10/14 10:39:54;;;;;;;;;5.00;5.00;;;;;33.14;100.00;101434.50;6165949;23;51383;-48
2022/10/14 10:42:54;;;;;;;;;6.75;4.50;;;;;33.13;100.00;101430.00;6187510;23;51120;-47
2022/10/14 10:45:46;;;;;;;;;5.00;5.00;;;;;33.12;100.00;101419.09;6187068;23;51033;-44
2022/10/14 10:48:38;;;;;;;;;7.00;5.75;;;;;33.18;100.00;101421.31;6164307;23;51489;-49
2022/10/14 10:51:37;;;;;;;;;3.25;3.00;;;;;33.25;100.00;101425.28;6187294;23;51099;-46
2022/10/14 10:54:34;;;;;;;;;5.50;4.00;;;;;33.18;100.00;101419.44;6187839;23;51409;-49
2022/10/14 10:57:37;;;;;;;;;9.25;8.00;;;;;33.15;100.00;101427.13;6187821;23;50938;-46
2022/10/14 11:00:22;;;;;;;;;6.00;3.00;;;;;33.10;100.00;101418.38;6186923;23;51326;-47
2022/10/14 11:03:20;;;;;;;;;3.50;2.25;;;;;33.02;100.00;101417.19;6190128;23;51591;-50
2022/10/14 11:13:32;;;;;;;;;3.00;1.00;;;;;32.94;100.00;101403.22;6174874;23;51471;-49
2022/10/14 11:16:25;;;;;;;;;3.75;3.75;;;;;32.89;100.00;101400.88;6190053;23;50981;-46
2022/10/14 11:54:32;;;;;;;;;7.25;4.25;;;;;33.29;100.00;101373.47;4381724;32;51146;-46
2022/10/14 11:57:42;;;;;;;;;8.25;5.75;;;;;33.20;100.00;101354.00;5115147;27;51300;-46
2022/10/14 12:00:29;;;;;;;;;9.25;8.00;;;;;33.16;100.00;101349.75;5115873;27;51443;-45
2022/10/14 12:03:26;;;;;;;;;3.00;3.00;;;;;33.17;100.00;101362.53;5115962;27;51094;-46
2022/10/14 12:06:21;;;;;;;;;8.75;6.25;;;;;33.09;100.00;101356.84;5115224;27;51116;-47
2022/10/14 12:09:14;;;;;;;;;5.00;3.00;;;;;33.07;100.00;101367.13;5117089;27;51387;-46
2022/10/14 12:12:03;;;;;;;;;5.50;4.00;;;;;33.05;100.00;101350.75;5117466;27;51192;-44
2022/10/14 12:14:51;;;;;;;;;6.50;3.50;;;;;33.09;100.00;101339.41;5113595;27;51338;-45
2022/10/14 12:17:58;;;;;;;;;7.00;5.50;;;;;32.99;100.00;101342.16;5115942;27;51451;-48
2022/10/14 12:21:09;;;;;;;;;5.25;5.25;;;;;32.96;100.00;101340.56;5108203;27;51187;-47
2022/10/14 12:24:19;;;;;;;;;6.75;4.50;;;;;33.01;100.00;101340.13;5112369;27;51074;-47
2022/10/14 12:27:05;;;;;;;;;5.50;4.75;;;;;32.94;100.00;101337.06;5120510;27;51139;-44
2022/10/14 12:29:51;;;;;;;;;5.25;3.00;;;;;32.93;100.00;101329.78;5115200;27;51239;-47
2022/10/14 12:33:03;;;;;;;;;7.00;5.25;;;;;32.92;100.00;101326.16;5111624;27;51237;-46
2022/10/14 12:35:52;;;;;;;;;4.00;4.00;;;;;32.95;100.00;101324.13;5113491;27;51165;-46
2022/10/14 12:38:37;;;;;;;;;6.25;6.25;;;;;32.94;100.00;101303.97;5114739;27;51187;-46
2022/10/14 12:41:54;;;;;;;;;6.25;5.00;;;;;32.97;100.00;101319.38;5113573;27;51416;-44
2022/10/14 12:44:47;;;;;;;;;5.75;4.00;;;;;32.97;100.00;101320.22;5043548;27;51652;-45
2022/10/14 12:47:35;;;;;;;;;4.75;4.75;;;;;32.87;100.00;101280.72;5091142;27;51667;-44
2022/10/14 12:50:45;;;;;;;;;6.00;5.00;;;;;33.04;100.00;101299.38;5114507;27;51224;-48
2022/10/14 12:53:31;;;;;;;;;6.25;5.00;;;;;32.97;100.00;101302.81;5091531;27;51187;-48
2022/10/14 12:56:34;;;;;;;;;3.75;3.75;;;;;32.97;100.00;101297.31;5102517;27;51348;-45
2022/10/14 12:59:35;;;;;;;;;4.75;4.25;;;;;32.98;100.00;101290.78;5101801;27;51433;-48
2022/10/14 13:02:37;;;;;;;;;6.25;5.50;;;;;32.99;100.00;101298.06;5102359;27;51124;-48
2022/10/14 13:05:35;;;;;;;;;6.25;4.75;;;;;32.98;100.00;101290.78;5102205;27;52083;-48
2022/10/14 13:08:22;;;;;;;;;6.00;5.00;;;;;32.92;100.00;101292.22;5102357;27;51075;-47
2022/10/14 13:11:15;;;;;;;;;4.75;4.00;;;;;32.78;100.00;101271.38;5102440;27;51367;-44
2022/10/14 13:14:01;;;;;;;;;7.75;4.25;;;;;32.83;100.00;101282.03;5097046;27;51528;-50
2022/10/14 13:16:45;;;;;;;;;7.00;5.00;;;;;32.88;100.00;101279.72;5102358;27;51146;-47
2022/10/14 13:19:33;;;;;;;;;6.75;5.50;;;;;32.94;100.00;101283.81;5101750;27;51359;-46
2022/10/14 13:22:27;;;;;;;;;6.75;5.00;;;;;32.89;100.00;101278.72;5101914;27;51087;-46
2022/10/14 13:25:19;;;;;;;;;5.75;5.75;;;;;32.94;100.00;101286.56;5102300;27;51201;-46
2022/10/14 13:28:14;;;;;;;;;4.75;4.75;;;;;32.82;100.00;101272.88;5094791;27;51313;-47
2022/10/14 13:31:07;;;;;;;;;7.50;5.75;;;;;32.81;100.00;101282.16;5097152;27;51544;-49